createdAt,value
2018-07-02T00:00:41.314Z,109.20
2018-07-02T00:01:41.324Z,109.00
2018-07-02T00:02:41.355Z,113.20
2018-07-02T00:03:41.360Z,113.40
2018-07-02T00:04:41.496Z,111.30
2018-07-02T00:05:41.438Z,111.90
2018-07-02T00:06:41.469Z,107.90
2018-07-02T00:07:41.471Z,107.70
2018-07-02T00:08:41.440Z,108.10
2018-07-02T00:09:41.542Z,107.30
2018-07-02T00:10:41.450Z,110.70
2018-07-02T00:11:41.484Z,108.40
2018-07-02T00:12:41.490Z,108.80
2018-07-02T00:13:41.499Z,112.90
2018-07-02T00:14:41.654Z,110.30
2018-07-02T00:15:41.513Z,111.50
2018-07-02T00:16:41.534Z,112.80
2018-07-02T00:17:41.612Z,113.20
2018-07-02T00:18:41.618Z,110.40
2018-07-02T00:19:41.577Z,109.30
2018-07-02T00:20:41.685Z,108.00
2018-07-02T00:21:41.610Z,108.10
2018-07-02T00:22:41.642Z,109.10
2018-07-02T00:23:41.656Z,112.80
2018-07-02T00:24:41.641Z,117.20
2018-07-02T00:25:41.798Z,118.20
2018-07-02T00:26:41.692Z,121.40
2018-07-02T00:27:41.694Z,122.60
2018-07-02T00:28:41.715Z,118.40
2018-07-02T00:29:41.716Z,119.30
2018-07-02T00:30:41.840Z,116.60
2018-07-02T00:31:41.788Z,112.20
2018-07-02T00:32:41.780Z,117.50
2018-07-02T00:33:41.772Z,115.80
2018-07-02T00:34:41.806Z,116.50
2018-07-02T00:35:41.827Z,120.30
2018-07-02T00:36:41.939Z,122.70
2018-07-02T00:37:41.851Z,124.50
2018-07-02T00:38:41.854Z,128.40
2018-07-02T00:39:41.871Z,125.20
2018-07-02T00:40:41.876Z,122.90
2018-07-02T00:41:41.894Z,122.20
2018-07-02T00:42:42.068Z,130.00
2018-07-02T00:43:41.933Z,130.60
2018-07-02T00:44:41.936Z,128.60
2018-07-02T00:45:41.970Z,132.30
2018-07-02T00:46:41.962Z,130.50
2018-07-02T00:47:42.090Z,128.90
2018-07-02T00:48:42.014Z,130.50
2018-07-02T00:49:42.025Z,129.40
2018-07-02T00:50:42.033Z,128.30
2018-07-02T00:51:42.015Z,133.80
2018-07-02T00:52:42.142Z,134.50
2018-07-02T00:53:42.048Z,143.10
2018-07-02T00:54:42.059Z,139.00
2018-07-02T00:55:42.082Z,142.40
2018-07-02T00:56:42.111Z,145.60
2018-07-02T00:57:42.288Z,143.00
2018-07-02T00:58:42.129Z,146.10
2018-07-02T00:59:42.191Z,155.70
2018-07-02T01:00:42.143Z,154.10
2018-07-02T01:01:42.159Z,154.90
2018-07-02T01:02:42.275Z,155.60
2018-07-02T01:03:42.243Z,158.10
2018-07-02T01:04:42.212Z,150.50
2018-07-02T01:05:42.231Z,149.20
2018-07-02T01:06:42.229Z,142.40
2018-07-02T01:07:42.390Z,144.60
2018-07-02T01:08:42.264Z,143.90
2018-07-02T01:09:42.282Z,138.80
2018-07-02T01:10:42.281Z,143.70
2018-07-02T01:11:42.305Z,136.20
2018-07-02T01:12:42.417Z,137.30
2018-07-02T01:13:42.336Z,140.80
2018-07-02T01:14:42.389Z,138.40
2018-07-02T01:15:42.347Z,144.40
2018-07-02T01:16:42.383Z,144.60
2018-07-02T01:17:42.556Z,143.00
2018-07-02T01:18:42.398Z,149.50
2018-07-02T01:19:42.455Z,144.90
2018-07-02T01:20:42.439Z,146.90
2018-07-02T01:21:42.460Z,147.10
2018-07-02T01:22:42.561Z,148.60
2018-07-02T01:23:42.480Z,146.80
2018-07-02T01:24:42.488Z,144.10
2018-07-02T01:25:42.506Z,148.30
2018-07-02T01:26:42.500Z,157.00
2018-07-02T01:27:42.672Z,158.50
2018-07-02T01:28:42.561Z,158.10
2018-07-02T01:29:42.541Z,165.20
2018-07-02T01:30:42.569Z,164.30
2018-07-02T01:31:42.618Z,167.60
2018-07-02T01:32:42.703Z,168.10
2018-07-02T01:33:42.621Z,168.20
2018-07-02T01:34:42.599Z,167.80
2018-07-02T01:35:42.620Z,170.50
2018-07-02T01:36:42.654Z,164.70
2018-07-02T01:37:42.765Z,170.50
2018-07-02T01:38:42.675Z,167.50
2018-07-02T01:39:42.680Z,170.40
2018-07-02T01:40:42.711Z,174.80
2018-07-02T01:41:42.696Z,158.10
2018-07-02T01:42:42.790Z,169.80
2018-07-02T01:43:42.753Z,168.70
2018-07-02T01:44:42.849Z,171.80
2018-07-02T01:45:42.773Z,173.20
2018-07-02T01:46:42.778Z,173.60
2018-07-02T01:47:42.781Z,170.50
2018-07-02T01:48:42.791Z,164.00
2018-07-02T01:49:42.965Z,168.70
2018-07-02T01:50:42.823Z,175.00
2018-07-02T01:51:42.838Z,170.60
2018-07-02T01:52:42.869Z,174.00
2018-07-02T01:53:42.877Z,168.40
2018-07-02T01:54:42.880Z,166.00
2018-07-02T01:55:42.982Z,168.90
2018-07-02T01:56:42.920Z,167.80
2018-07-02T01:57:42.910Z,164.50
2018-07-02T01:58:42.942Z,164.30
2018-07-02T01:59:42.929Z,167.20
2018-07-02T02:00:43.044Z,169.50
2018-07-02T02:01:42.989Z,170.30
2018-07-02T02:02:42.974Z,165.00
2018-07-02T02:03:43.003Z,158.80
2018-07-02T02:04:42.994Z,160.70
2018-07-02T02:05:43.126Z,168.30
2018-07-02T02:06:43.028Z,166.90
2018-07-02T02:07:43.038Z,168.60
2018-07-02T02:08:43.111Z,169.00
2018-07-02T02:09:43.087Z,169.70
2018-07-02T02:10:43.188Z,162.40
2018-07-02T02:11:43.100Z,165.00
2018-07-02T02:12:43.122Z,175.00
2018-07-02T02:13:43.161Z,171.40
2018-07-02T02:14:43.175Z,177.60
2018-07-02T02:15:43.281Z,173.70
2018-07-02T02:16:43.202Z,178.60
2018-07-02T02:17:43.201Z,172.20
2018-07-02T02:18:43.217Z,167.50
2018-07-02T02:19:43.261Z,172.50
2018-07-02T02:20:43.375Z,174.50
2018-07-02T02:21:43.264Z,181.90
2018-07-02T02:22:43.304Z,179.30
2018-07-02T02:23:43.304Z,177.70
2018-07-02T02:24:43.281Z,179.30
2018-07-02T02:25:43.410Z,169.00
2018-07-02T02:26:43.331Z,186.00
2018-07-02T02:27:43.332Z,186.40
2018-07-02T02:28:43.348Z,184.50
2018-07-02T02:29:43.359Z,178.80
2018-07-02T02:30:43.456Z,175.00
2018-07-02T02:31:43.385Z,172.90
2018-07-02T02:32:43.403Z,176.10
2018-07-02T02:33:43.431Z,170.80
2018-07-02T02:34:43.429Z,159.90
2018-07-02T02:35:43.555Z,155.90
2018-07-02T02:36:43.465Z,160.60
2018-07-02T02:37:43.469Z,162.30
2018-07-02T02:38:43.489Z,159.70
2018-07-02T02:39:43.547Z,163.80
2018-07-02T02:40:43.599Z,163.50
2018-07-02T02:41:43.532Z,172.40
2018-07-02T02:42:43.542Z,176.90
2018-07-02T02:43:43.567Z,171.90
2018-07-02T02:44:43.570Z,179.30
2018-07-02T02:45:43.614Z,179.00
2018-07-02T02:46:43.594Z,180.80
2018-07-02T02:47:43.609Z,185.60
2018-07-02T02:48:43.712Z,177.00
2018-07-02T02:49:43.626Z,180.50
2018-07-02T02:50:43.640Z,180.40
2018-07-02T02:51:43.665Z,173.90
2018-07-02T02:52:43.685Z,187.60
2018-07-02T02:53:43.758Z,181.30
2018-07-02T02:54:43.662Z,180.70
2018-07-02T02:55:43.710Z,186.40
2018-07-02T02:56:43.679Z,181.50
2018-07-02T02:57:43.704Z,192.40
2018-07-02T02:58:43.807Z,186.80
2018-07-02T02:59:43.729Z,185.20
2018-07-02T03:00:43.734Z,186.20
2018-07-02T03:01:43.736Z,184.20
2018-07-02T03:02:43.768Z,185.30
2018-07-02T03:03:43.837Z,196.20
2018-07-02T03:04:43.805Z,176.80
2018-07-02T03:05:43.790Z,168.00
2018-07-02T03:06:43.827Z,170.10
2018-07-02T03:07:43.970Z,166.80
2018-07-02T03:08:43.833Z,170.60
2018-07-02T03:09:43.880Z,176.30
2018-07-02T03:10:43.855Z,183.80
2018-07-02T03:11:43.889Z,187.70
2018-07-02T03:12:43.928Z,186.90
2018-07-02T03:13:43.889Z,192.90
2018-07-02T03:14:43.922Z,186.60
2018-07-02T03:15:43.914Z,188.30
2018-07-02T03:16:43.945Z,181.40
2018-07-02T03:17:44.124Z,188.40
2018-07-02T03:18:43.953Z,188.30
2018-07-02T03:19:43.991Z,187.30
2018-07-02T03:20:43.994Z,184.40
2018-07-02T03:21:43.991Z,182.50
2018-07-02T03:22:44.125Z,169.80
2018-07-02T03:23:44.031Z,157.80
2018-07-02T03:24:44.047Z,173.60
2018-07-02T03:25:44.044Z,180.40
2018-07-02T03:26:44.072Z,175.10
2018-07-02T03:27:44.219Z,179.50
2018-07-02T03:28:44.086Z,182.30
2018-07-02T03:29:44.098Z,175.60
2018-07-02T03:30:44.163Z,176.70
2018-07-02T03:31:44.145Z,170.50
2018-07-02T03:32:44.293Z,168.60
2018-07-02T03:33:44.144Z,167.70
2018-07-02T03:34:44.184Z,162.40
2018-07-02T03:35:44.224Z,170.40
2018-07-02T03:36:44.189Z,165.90
2018-07-02T03:37:44.365Z,170.80
2018-07-02T03:38:44.221Z,167.30
2018-07-02T03:39:44.234Z,168.90
2018-07-02T03:40:44.247Z,191.00
2018-07-02T03:41:44.251Z,170.60
2018-07-02T03:42:44.368Z,158.30
2018-07-02T03:43:44.277Z,158.90
2018-07-02T03:44:44.352Z,154.40
2018-07-02T03:45:44.329Z,170.40
2018-07-02T03:46:44.316Z,179.90
2018-07-02T03:47:44.441Z,175.90
2018-07-02T03:48:44.337Z,174.10
2018-07-02T03:49:44.375Z,183.50
2018-07-02T03:50:44.383Z,190.50
2018-07-02T03:51:44.374Z,176.50
2018-07-02T03:52:44.514Z,184.10
2018-07-02T03:53:44.411Z,182.90
2018-07-02T03:54:44.439Z,187.70
2018-07-02T03:55:44.489Z,191.30
2018-07-02T03:56:44.498Z,183.20
2018-07-02T03:57:44.562Z,192.50
2018-07-02T03:58:44.496Z,189.60
2018-07-02T03:59:44.491Z,186.80
2018-07-02T04:00:44.514Z,186.60
2018-07-02T04:01:44.505Z,186.30
2018-07-02T04:02:44.625Z,178.80
2018-07-02T04:03:44.540Z,169.10
2018-07-02T04:04:44.538Z,173.50
2018-07-02T04:05:44.557Z,154.90
2018-07-02T04:06:44.583Z,169.50
2018-07-02T04:07:44.688Z,169.50
2018-07-02T04:08:44.606Z,172.20
2018-07-02T04:09:44.624Z,185.20
2018-07-02T04:10:44.626Z,180.90
2018-07-02T04:11:44.626Z,184.40
2018-07-02T04:12:44.748Z,182.20
2018-07-02T04:13:44.680Z,184.60
2018-07-02T04:14:44.691Z,186.20
2018-07-02T04:15:44.731Z,188.10
2018-07-02T04:16:44.708Z,184.50
2018-07-02T04:17:44.764Z,183.00
2018-07-02T04:18:44.727Z,196.20
2018-07-02T04:19:44.756Z,192.50
2018-07-02T04:20:44.766Z,181.60
2018-07-02T04:21:44.776Z,181.60
2018-07-02T04:22:44.891Z,184.30
2018-07-02T04:23:44.844Z,179.30
2018-07-02T04:24:44.803Z,190.20
2018-07-02T04:25:44.818Z,193.80
2018-07-02T04:26:44.822Z,170.60
2018-07-02T04:27:44.929Z,181.10
2018-07-02T04:28:44.870Z,178.90
2018-07-02T04:29:44.868Z,164.70
2018-07-02T04:30:44.886Z,191.00
2018-07-02T04:31:44.890Z,176.80
2018-07-02T04:32:45.014Z,168.40
2018-07-02T04:33:45.039Z,161.70
2018-07-02T04:34:44.930Z,166.50
2018-07-02T04:35:44.949Z,147.30
2018-07-02T04:36:44.946Z,155.40
2018-07-02T04:37:45.021Z,165.50
2018-07-02T04:38:45.021Z,173.60
2018-07-02T04:39:45.105Z,173.90
2018-07-02T04:40:45.017Z,177.30
2018-07-02T04:41:45.024Z,179.30
2018-07-02T04:42:45.036Z,173.40
2018-07-02T04:43:45.051Z,169.10
2018-07-02T04:44:45.208Z,167.90
2018-07-02T04:45:45.056Z,173.40
2018-07-02T04:46:45.082Z,164.30
2018-07-02T04:47:46.972Z,157.70
2018-07-02T04:48:45.103Z,160.10
2018-07-02T04:49:45.272Z,161.90
2018-07-02T04:50:45.142Z,155.40
2018-07-02T04:51:45.147Z,148.00
2018-07-02T04:52:45.159Z,158.10
2018-07-02T04:53:45.152Z,150.70
2018-07-02T04:54:45.271Z,157.80
2018-07-02T04:55:45.212Z,163.90
2018-07-02T04:56:45.203Z,154.10
2018-07-02T04:57:45.219Z,155.00
2018-07-02T04:58:45.243Z,152.10
2018-07-02T04:59:45.359Z,167.00
2018-07-02T05:00:45.252Z,162.00
2018-07-02T05:01:45.256Z,167.60
2018-07-02T05:02:45.272Z,171.60
2018-07-02T05:03:45.298Z,174.40
2018-07-02T05:04:45.402Z,161.20
2018-07-02T05:05:45.358Z,177.00
2018-07-02T05:06:45.341Z,170.60
2018-07-02T05:07:45.357Z,174.90
2018-07-02T05:08:45.345Z,173.40
2018-07-02T05:09:45.527Z,169.50
2018-07-02T05:10:45.386Z,166.30
2018-07-02T05:11:45.440Z,162.80
2018-07-02T05:12:45.398Z,173.30
2018-07-02T05:13:45.425Z,168.70
2018-07-02T05:14:45.521Z,171.00
2018-07-02T05:15:45.442Z,170.10
2018-07-02T05:16:45.463Z,175.20
2018-07-02T05:17:45.452Z,180.40
2018-07-02T05:18:45.492Z,172.90
2018-07-02T05:19:45.594Z,178.90
2018-07-02T05:20:45.510Z,183.40
2018-07-02T05:21:45.526Z,173.70
2018-07-02T05:22:45.518Z,175.70
2018-07-02T05:23:45.537Z,172.10
2018-07-02T05:24:45.663Z,180.60
2018-07-02T05:25:45.576Z,171.20
2018-07-02T05:26:45.590Z,176.40
2018-07-02T05:27:45.575Z,161.70
2018-07-02T05:28:45.599Z,166.30
2018-07-02T05:29:45.626Z,179.40
2018-07-02T05:30:45.711Z,182.40
2018-07-02T05:31:45.637Z,176.60
2018-07-02T05:32:45.660Z,167.80
2018-07-02T05:33:45.710Z,184.30
2018-07-02T05:34:45.688Z,168.90
2018-07-02T05:35:45.773Z,166.50
2018-07-02T05:36:45.714Z,168.90
2018-07-02T05:37:45.720Z,176.50
2018-07-02T05:38:45.783Z,180.40
2018-07-02T05:39:45.735Z,150.30
2018-07-02T05:40:45.834Z,174.20
2018-07-02T05:41:45.755Z,173.90
2018-07-02T05:42:45.758Z,181.20
2018-07-02T05:43:45.803Z,169.00
2018-07-02T05:44:45.803Z,151.00
2018-07-02T05:45:45.807Z,153.90
2018-07-02T05:46:45.909Z,145.60
2018-07-02T05:47:45.836Z,164.70
2018-07-02T05:48:45.844Z,148.60
2018-07-02T05:49:45.860Z,153.10
2018-07-02T05:50:45.871Z,159.10
2018-07-02T05:51:45.871Z,158.80
2018-07-02T05:52:45.986Z,152.60
2018-07-02T05:53:45.912Z,159.00
2018-07-02T05:54:45.918Z,158.40
2018-07-02T05:55:45.944Z,169.20
2018-07-02T05:56:45.930Z,167.70
2018-07-02T05:57:46.055Z,171.70
2018-07-02T05:58:45.980Z,150.40
2018-07-02T05:59:45.978Z,156.30
2018-07-02T06:00:46.016Z,173.40
2018-07-02T06:01:46.000Z,167.90
2018-07-02T06:02:46.115Z,172.90
2018-07-02T06:03:46.017Z,171.80
2018-07-02T06:04:46.050Z,171.20
2018-07-02T06:05:46.052Z,179.70
2018-07-02T06:06:46.057Z,169.90
2018-07-02T06:07:46.198Z,170.40
2018-07-02T06:08:46.136Z,173.90
2018-07-02T06:09:46.116Z,169.60
2018-07-02T06:10:46.106Z,173.50
2018-07-02T06:11:46.147Z,170.50
2018-07-02T06:12:46.248Z,172.40
2018-07-02T06:13:46.170Z,168.80
2018-07-02T06:14:46.176Z,169.60
2018-07-02T06:15:46.183Z,175.10
2018-07-02T06:16:46.192Z,176.50
2018-07-02T06:17:46.301Z,174.10
2018-07-02T06:18:46.199Z,165.30
2018-07-02T06:19:46.222Z,170.40
2018-07-02T06:20:46.235Z,171.80
2018-07-02T06:21:46.261Z,177.50
2018-07-02T06:22:46.297Z,168.00
2018-07-02T06:23:46.268Z,163.80
2018-07-02T06:24:46.417Z,162.70
2018-07-02T06:25:46.306Z,172.20
2018-07-02T06:26:46.322Z,162.70
2018-07-02T06:27:46.376Z,162.40
2018-07-02T06:28:46.325Z,152.40
2018-07-02T06:29:46.438Z,168.90
2018-07-02T06:30:46.344Z,169.20
2018-07-02T06:31:46.386Z,166.80
2018-07-02T06:32:46.367Z,177.30
2018-07-02T06:33:46.398Z,173.70
2018-07-02T06:34:46.519Z,168.70
2018-07-02T06:35:46.436Z,152.20
2018-07-02T06:36:46.421Z,150.60
2018-07-02T06:37:46.487Z,158.30
2018-07-02T06:38:46.499Z,165.70
2018-07-02T06:39:46.562Z,158.80
2018-07-02T06:40:46.472Z,149.60
2018-07-02T06:41:46.493Z,160.80
2018-07-02T06:42:46.591Z,160.50
2018-07-02T06:43:46.513Z,152.50
2018-07-02T06:44:46.540Z,147.70
2018-07-02T06:45:46.530Z,140.40
2018-07-02T06:46:46.548Z,139.60
2018-07-02T06:47:46.650Z,141.80
2018-07-02T06:48:46.581Z,134.10
2018-07-02T06:49:46.587Z,131.50
2018-07-02T06:50:46.596Z,125.20
2018-07-02T06:51:46.619Z,125.30
2018-07-02T06:52:46.715Z,129.70
2018-07-02T06:53:46.681Z,139.20
2018-07-02T06:54:46.640Z,136.50
2018-07-02T06:55:46.671Z,139.30
2018-07-02T06:56:46.665Z,134.50
2018-07-02T06:57:46.722Z,128.20
2018-07-02T06:58:46.702Z,130.90
2018-07-02T06:59:46.697Z,134.70
2018-07-02T07:00:46.728Z,138.50
2018-07-02T07:01:46.843Z,144.90
2018-07-02T07:02:46.751Z,143.40
2018-07-02T07:03:46.747Z,157.60
2018-07-02T07:04:46.760Z,152.20
2018-07-02T07:05:46.787Z,164.00
2018-07-02T07:06:46.913Z,158.80
2018-07-02T07:07:46.912Z,154.90
2018-07-02T07:08:46.838Z,153.30
2018-07-02T07:09:46.828Z,151.90
2018-07-02T07:10:46.883Z,140.30
2018-07-02T07:11:46.848Z,144.80
2018-07-02T07:12:46.959Z,138.00
2018-07-02T07:13:46.881Z,138.70
2018-07-02T07:14:46.888Z,145.60
2018-07-02T07:15:46.915Z,150.60
2018-07-02T07:16:46.912Z,148.60
2018-07-02T07:17:47.024Z,146.80
2018-07-02T07:18:46.936Z,144.30
2018-07-02T07:19:46.937Z,153.50
2018-07-02T07:20:46.975Z,154.30
2018-07-02T07:21:46.977Z,159.40
2018-07-02T07:22:47.038Z,159.50
2018-07-02T07:23:47.102Z,156.90
2018-07-02T07:24:47.017Z,158.90
2018-07-02T07:25:47.047Z,170.00
2018-07-02T07:26:47.024Z,164.40
2018-07-02T07:27:47.039Z,152.30
2018-07-02T07:28:47.045Z,143.60
2018-07-02T07:29:47.156Z,144.00
2018-07-02T07:30:47.087Z,138.80
2018-07-02T07:31:47.084Z,135.60
2018-07-02T07:32:47.113Z,132.60
2018-07-02T07:33:47.236Z,142.50
2018-07-02T07:34:47.238Z,137.70
2018-07-02T07:35:47.154Z,136.20
2018-07-02T07:36:47.168Z,146.20
2018-07-02T07:37:47.165Z,151.70
2018-07-02T07:38:47.165Z,143.40
2018-07-02T07:39:47.389Z,150.40
2018-07-02T07:40:47.185Z,154.30
2018-07-02T07:41:47.216Z,152.60
2018-07-02T07:42:47.217Z,151.20
2018-07-02T07:43:47.248Z,154.10
2018-07-02T07:44:47.294Z,149.50
2018-07-02T07:45:47.324Z,145.50
2018-07-02T07:46:47.266Z,141.10
2018-07-02T07:47:47.272Z,149.00
2018-07-02T07:48:47.305Z,147.70
2018-07-02T07:49:47.346Z,141.40
2018-07-02T07:50:47.470Z,150.00
2018-07-02T07:51:47.328Z,161.30
2018-07-02T07:52:47.345Z,159.20
2018-07-02T07:53:47.340Z,148.20
2018-07-02T07:54:47.364Z,144.90
2018-07-02T07:55:47.471Z,150.50
2018-07-02T07:56:47.377Z,153.10
2018-07-02T07:57:47.402Z,161.30
2018-07-02T07:58:47.421Z,163.40
2018-07-02T07:59:47.426Z,167.10
2018-07-02T08:00:47.500Z,169.00
2018-07-02T08:01:47.445Z,168.60
2018-07-02T08:02:47.610Z,161.90
2018-07-02T08:03:47.480Z,156.90
2018-07-02T08:04:47.492Z,166.70
2018-07-02T08:05:47.487Z,153.90
2018-07-02T08:06:47.523Z,155.80
2018-07-02T08:07:47.667Z,160.60
2018-07-02T08:08:47.537Z,166.80
2018-07-02T08:09:47.539Z,169.10
2018-07-02T08:10:47.562Z,168.20
2018-07-02T08:11:47.570Z,161.50
2018-07-02T08:12:47.619Z,164.90
2018-07-02T08:13:47.579Z,161.90
2018-07-02T08:14:47.744Z,149.90
2018-07-02T08:15:47.618Z,151.40
2018-07-02T08:16:47.628Z,150.20
2018-07-02T08:17:47.649Z,158.70
2018-07-02T08:18:47.722Z,149.10
2018-07-02T08:19:47.670Z,142.20
2018-07-02T08:20:47.860Z,151.40
2018-07-02T08:21:47.689Z,141.20
2018-07-02T08:22:47.686Z,146.90
2018-07-02T08:23:47.704Z,144.20
2018-07-02T08:24:47.722Z,146.90
2018-07-02T08:25:47.740Z,158.20
2018-07-02T08:26:47.943Z,142.70
2018-07-02T08:27:47.766Z,143.10
2018-07-02T08:28:47.763Z,136.80
2018-07-02T08:29:47.896Z,146.90
2018-07-02T08:30:47.800Z,149.40
2018-07-02T08:31:47.897Z,161.40
2018-07-02T08:32:47.861Z,159.60
2018-07-02T08:33:47.810Z,154.60
2018-07-02T08:34:47.845Z,157.40
2018-07-02T08:35:47.860Z,154.80
2018-07-02T08:36:47.970Z,156.40
2018-07-02T08:37:47.917Z,163.30
2018-07-02T08:38:47.881Z,158.40
2018-07-02T08:39:47.943Z,161.50
2018-07-02T08:40:47.903Z,165.70
2018-07-02T08:41:48.073Z,157.40
2018-07-02T08:42:47.933Z,154.20
2018-07-02T08:43:47.947Z,166.40
2018-07-02T08:44:48.020Z,161.90
2018-07-02T08:45:47.955Z,150.30
2018-07-02T08:46:48.214Z,151.00
2018-07-02T08:47:47.989Z,155.80
2018-07-02T08:48:47.996Z,161.30
2018-07-02T08:49:48.005Z,144.50
2018-07-02T08:50:48.016Z,145.20
2018-07-02T08:51:48.227Z,147.00
2018-07-02T08:52:48.111Z,143.50
2018-07-02T08:53:48.063Z,147.30
2018-07-02T08:54:48.081Z,161.50
2018-07-02T08:55:48.097Z,144.30
2018-07-02T08:56:48.189Z,139.40
2018-07-02T08:57:48.093Z,139.60
2018-07-02T08:58:48.121Z,145.60
2018-07-02T08:59:48.128Z,148.00
2018-07-02T09:00:48.135Z,145.10
2018-07-02T09:01:48.349Z,145.90
2018-07-02T09:02:48.155Z,143.80
2018-07-02T09:03:48.158Z,147.50
2018-07-02T09:04:48.168Z,137.50
2018-07-02T09:05:48.200Z,142.80
2018-07-02T09:06:48.400Z,129.90
2018-07-02T09:07:48.215Z,132.70
2018-07-02T09:08:48.237Z,142.70
2018-07-02T09:09:48.260Z,146.60
2018-07-02T09:10:48.245Z,145.40
2018-07-02T09:11:48.320Z,149.50
2018-07-02T09:12:48.287Z,147.90
2018-07-02T09:13:48.285Z,145.50
2018-07-02T09:14:48.371Z,144.80
2018-07-02T09:15:48.313Z,136.40
2018-07-02T09:16:48.419Z,140.90
2018-07-02T09:17:48.332Z,133.60
2018-07-02T09:18:48.333Z,138.10
2018-07-02T09:19:48.357Z,131.70
2018-07-02T09:20:48.381Z,129.20
2018-07-02T09:21:48.534Z,118.60
2018-07-02T09:22:48.389Z,123.90
2018-07-02T09:23:48.434Z,127.40
2018-07-02T09:24:48.426Z,139.90
2018-07-02T09:25:48.422Z,149.20
2018-07-02T09:26:48.528Z,151.20
2018-07-02T09:27:48.467Z,141.50
2018-07-02T09:28:48.451Z,147.10
2018-07-02T09:29:48.466Z,156.70
2018-07-02T09:30:48.716Z,149.00
2018-07-02T09:31:48.674Z,148.30
2018-07-02T09:32:48.498Z,140.30
2018-07-02T09:33:48.519Z,136.20
2018-07-02T09:34:48.674Z,132.10
2018-07-02T09:35:48.543Z,127.50
2018-07-02T09:36:48.556Z,133.30
2018-07-02T09:37:48.555Z,128.50
2018-07-02T09:38:48.568Z,132.20
2018-07-02T09:39:48.645Z,128.10
2018-07-02T09:40:48.612Z,126.60
2018-07-02T09:41:48.609Z,139.90
2018-07-02T09:42:48.630Z,126.60
2018-07-02T09:43:48.634Z,121.90
2018-07-02T09:44:48.792Z,127.80
2018-07-02T09:45:48.671Z,131.50
2018-07-02T09:46:48.654Z,134.50
2018-07-02T09:47:48.676Z,134.60
2018-07-02T09:48:48.689Z,144.30
2018-07-02T09:49:48.849Z,138.80
2018-07-02T09:50:48.726Z,127.70
2018-07-02T09:51:48.773Z,129.70
2018-07-02T09:52:48.825Z,135.20
2018-07-02T09:53:48.756Z,141.40
2018-07-02T09:54:48.760Z,140.00
2018-07-02T09:55:48.961Z,138.60
2018-07-02T09:56:48.789Z,134.20
2018-07-02T09:57:48.893Z,148.10
2018-07-02T09:58:48.800Z,143.30
2018-07-02T09:59:48.805Z,146.60
2018-07-02T10:00:48.910Z,145.60
2018-07-02T10:01:48.840Z,151.30
2018-07-02T10:02:48.952Z,161.60
2018-07-02T10:03:48.877Z,146.80
2018-07-02T10:04:48.986Z,165.50
2018-07-02T10:05:48.889Z,144.10
2018-07-02T10:06:48.949Z,139.70
2018-07-02T10:07:48.973Z,142.50
2018-07-02T10:08:48.928Z,144.40
2018-07-02T10:09:49.034Z,147.00
2018-07-02T10:10:48.953Z,142.90
2018-07-02T10:11:48.959Z,133.90
2018-07-02T10:12:48.967Z,139.30
2018-07-02T10:13:48.974Z,135.50
2018-07-02T10:14:49.152Z,152.30
2018-07-02T10:15:48.997Z,144.40
2018-07-02T10:16:49.013Z,147.40
2018-07-02T10:17:49.037Z,134.50
2018-07-02T10:18:49.041Z,131.50
2018-07-02T10:19:49.162Z,140.00
2018-07-02T10:20:49.067Z,135.40
2018-07-02T10:21:49.070Z,132.10
2018-07-02T10:22:49.102Z,140.80
2018-07-02T10:23:49.120Z,142.70
2018-07-02T10:24:49.211Z,149.40
2018-07-02T10:25:49.203Z,135.00
2018-07-02T10:26:49.131Z,133.50
2018-07-02T10:27:49.157Z,134.90
2018-07-02T10:28:49.160Z,131.20
2018-07-02T10:29:49.328Z,148.90
2018-07-02T10:30:49.232Z,148.90
2018-07-02T10:31:49.211Z,143.00
2018-07-02T10:32:49.226Z,146.80
2018-07-02T10:33:49.217Z,138.40
2018-07-02T10:34:49.390Z,133.20
2018-07-02T10:35:49.261Z,126.20
2018-07-02T10:36:49.264Z,118.60
2018-07-02T10:37:49.278Z,118.40
2018-07-02T10:38:49.298Z,124.20
2018-07-02T10:39:49.468Z,114.10
2018-07-02T10:40:49.306Z,113.20
2018-07-02T10:41:49.326Z,112.40
2018-07-02T10:42:49.385Z,117.90
2018-07-02T10:43:49.346Z,106.60
2018-07-02T10:44:49.413Z,101.30
2018-07-02T10:45:49.389Z,99.60
2018-07-02T10:46:49.597Z,91.80
2018-07-02T10:47:49.416Z,90.30
2018-07-02T10:48:49.442Z,92.70
2018-07-02T10:49:49.486Z,88.10
2018-07-02T10:50:49.465Z,84.40
2018-07-02T10:51:49.625Z,83.90
2018-07-02T10:52:49.485Z,79.50
2018-07-02T10:53:49.541Z,80.10
2018-07-02T10:54:49.503Z,79.30
2018-07-02T10:55:49.511Z,76.60
2018-07-02T10:56:49.527Z,79.30
2018-07-02T10:57:49.700Z,74.20
2018-07-02T10:58:49.562Z,72.60
2018-07-02T10:59:49.583Z,70.00
2018-07-02T11:00:49.599Z,69.40
2018-07-02T11:01:49.608Z,67.50
2018-07-02T11:02:49.638Z,66.20
2018-07-02T11:03:49.786Z,66.10
2018-07-02T11:04:49.645Z,66.60
2018-07-02T11:05:49.695Z,66.80
2018-07-02T11:06:49.711Z,64.20
2018-07-02T11:07:49.718Z,62.10
2018-07-02T11:08:49.881Z,62.40
2018-07-02T11:09:49.748Z,60.50
2018-07-02T11:10:49.759Z,58.60
2018-07-02T11:11:49.779Z,55.40
2018-07-02T11:12:49.783Z,56.70
2018-07-02T11:13:49.890Z,55.70
2018-07-02T11:14:49.825Z,56.90
2018-07-02T11:15:49.841Z,57.40
2018-07-02T11:16:49.866Z,58.10
2018-07-02T11:17:49.880Z,56.80
2018-07-02T11:18:50.032Z,57.00
2018-07-02T11:19:49.911Z,54.20
2018-07-02T11:20:49.920Z,55.80
2018-07-02T11:21:49.923Z,53.50
2018-07-02T11:22:49.959Z,55.50
2018-07-02T11:23:50.074Z,53.70
2018-07-02T11:24:50.015Z,51.90
2018-07-02T11:25:50.012Z,50.20
2018-07-02T11:26:50.018Z,52.60
2018-07-02T11:27:50.044Z,52.90
2018-07-02T11:28:50.274Z,53.50
2018-07-02T11:29:50.087Z,52.60
2018-07-02T11:30:50.098Z,51.00
2018-07-02T11:31:50.104Z,51.30
2018-07-02T11:32:50.122Z,50.70
2018-07-02T11:33:50.339Z,50.00
2018-07-02T11:34:50.172Z,49.30
2018-07-02T11:35:50.183Z,50.40
2018-07-02T11:36:50.199Z,49.20
2018-07-02T11:37:50.202Z,50.50
2018-07-02T11:38:50.391Z,48.70
2018-07-02T11:39:50.263Z,47.50
2018-07-02T11:40:50.282Z,48.40
2018-07-02T11:41:50.289Z,49.00
2018-07-02T11:42:50.294Z,48.90
2018-07-02T11:43:50.411Z,48.90
2018-07-02T11:44:50.360Z,49.50
2018-07-02T11:45:50.387Z,49.30
2018-07-02T11:46:50.381Z,51.60
2018-07-02T11:47:50.393Z,49.00
2018-07-02T11:48:50.621Z,50.00
2018-07-02T11:49:50.434Z,49.60
2018-07-02T11:50:50.464Z,49.90
2018-07-02T11:51:50.485Z,49.80
2018-07-02T11:52:50.496Z,51.40
2018-07-02T11:53:50.728Z,50.50
2018-07-02T11:54:50.588Z,50.00
2018-07-02T11:55:50.544Z,49.90
2018-07-02T11:56:50.571Z,48.60
2018-07-02T11:57:50.584Z,50.70
2018-07-02T11:58:50.757Z,49.50
2018-07-02T11:59:50.672Z,48.90
2018-07-02T12:00:50.645Z,50.30
2018-07-02T12:01:50.705Z,49.30
2018-07-02T12:02:50.680Z,48.50
2018-07-02T12:03:50.904Z,48.90
2018-07-02T12:04:50.729Z,49.70
2018-07-02T12:05:50.761Z,49.20
2018-07-02T12:06:50.753Z,48.20
2018-07-02T12:07:50.793Z,49.00
2018-07-02T12:08:50.974Z,47.70
2018-07-02T12:09:50.855Z,51.80
2018-07-02T12:10:50.874Z,49.60
2018-07-02T12:11:50.860Z,49.70
2018-07-02T12:12:50.919Z,46.10
2018-07-02T12:13:51.009Z,49.70
2018-07-02T12:14:50.910Z,47.70
2018-07-02T12:15:50.951Z,47.00
2018-07-02T12:16:50.959Z,44.20
2018-07-02T12:17:50.966Z,43.00
2018-07-02T12:18:51.154Z,44.50
2018-07-02T12:19:51.009Z,42.10
2018-07-02T12:20:51.157Z,43.20
2018-07-02T12:21:51.067Z,43.60
2018-07-02T12:22:51.059Z,42.60
2018-07-02T12:23:51.195Z,43.10
2018-07-02T12:24:51.114Z,42.80
2018-07-02T12:25:51.139Z,41.80
2018-07-02T12:26:51.139Z,43.00
2018-07-02T12:27:51.165Z,43.10
2018-07-02T12:28:51.298Z,43.10
2018-07-02T12:29:51.210Z,41.60
2018-07-02T12:30:51.242Z,43.30
2018-07-02T12:31:51.238Z,43.20